sensor_id;sensor_type;location;lat;lon;timestamp;P1;durP1;ratioP1;P2;durP2;ratioP2
57969;SDS011;43777;42.656;23.264;2022-09-13T00:01:57;6.22;;;4.95;;
57969;SDS011;43777;42.656;23.264;2022-09-13T00:04:23;5.55;;;5.05;;
57969;SDS011;43777;42.656;23.264;2022-09-13T00:06:49;6.20;;;5.32;;
57969;SDS011;43777;42.656;23.264;2022-09-13T00:09:16;7.88;;;5.15;;
57969;SDS011;43777;42.656;23.264;2022-09-13T00:11:42;5.57;;;5.07;;
57969;SDS011;43777;42.656;23.264;2022-09-13T00:14:08;8.38;;;5.95;;
57969;SDS011;43777;42.656;23.264;2022-09-13T00:16:34;7.30;;;5.07;;
57969;SDS011;43777;42.656;23.264;2022-09-13T00:19:01;5.75;;;5.03;;
57969;SDS011;43777;42.656;23.264;2022-09-13T00:21:27;6.55;;;5.30;;
57969;SDS011;43777;42.656;23.264;2022-09-13T00:23:53;5.50;;;5.00;;
57969;SDS011;43777;42.656;23.264;2022-09-13T00:26:21;6.20;;;5.00;;
57969;SDS011;43777;42.656;23.264;2022-09-13T00:28:48;9.13;;;5.00;;
57969;SDS011;43777;42.656;23.264;2022-09-13T00:31:15;6.97;;;5.38;;
57969;SDS011;43777;42.656;23.264;2022-09-13T00:33:41;5.40;;;4.85;;
57969;SDS011;43777;42.656;23.264;2022-09-13T00:36:08;6.38;;;5.60;;
57969;SDS011;43777;42.656;23.264;2022-09-13T00:38:35;6.45;;;5.20;;
57969;SDS011;43777;42.656;23.264;2022-09-13T00:41:02;6.10;;;5.25;;
57969;SDS011;43777;42.656;23.264;2022-09-13T00:46:10;7.85;;;5.05;;
57969;SDS011;43777;42.656;23.264;2022-09-13T00:48:37;6.25;;;5.13;;
57969;SDS011;43777;42.656;23.264;2022-09-13T00:51:03;5.93;;;4.90;;
57969;SDS011;43777;42.656;23.264;2022-09-13T00:53:31;6.53;;;4.55;;
57969;SDS011;43777;42.656;23.264;2022-09-13T00:55:59;7.75;;;5.28;;
57969;SDS011;43777;42.656;23.264;2022-09-13T00:58:28;7.47;;;5.28;;
57969;SDS011;43777;42.656;23.264;2022-09-13T01:00:57;5.75;;;5.15;;
57969;SDS011;43777;42.656;23.264;2022-09-13T01:03:23;5.68;;;5.15;;
57969;SDS011;43777;42.656;23.264;2022-09-13T01:06:03;9.18;;;5.53;;
57969;SDS011;43777;42.656;23.264;2022-09-13T01:08:30;6.20;;;4.95;;
57969;SDS011;43777;42.656;23.264;2022-09-13T01:10:58;9.90;;;5.03;;
57969;SDS011;43777;42.656;23.264;2022-09-13T01:13:27;8.13;;;5.38;;
57969;SDS011;43777;42.656;23.264;2022-09-13T01:15:53;6.32;;;5.25;;
57969;SDS011;43777;42.656;23.264;2022-09-13T01:18:19;6.50;;;5.30;;
57969;SDS011;43777;42.656;23.264;2022-09-13T01:28:38;6.97;;;5.57;;
57969;SDS011;43777;42.656;23.264;2022-09-13T01:42:15;5.15;;;4.60;;
57969;SDS011;43777;42.656;23.264;2022-09-13T01:57:23;5.78;;;5.28;;
57969;SDS011;43777;42.656;23.264;2022-09-13T01:59:59;5.95;;;4.68;;
57969;SDS011;43777;42.656;23.264;2022-09-13T02:02:37;7.07;;;4.93;;
57969;SDS011;43777;42.656;23.264;2022-09-13T02:05:08;5.47;;;4.97;;
57969;SDS011;43777;42.656;23.264;2022-09-13T02:07:40;8.18;;;4.40;;
57969;SDS011;43777;42.656;23.264;2022-09-13T02:10:17;7.88;;;4.93;;
57969;SDS011;43777;42.656;23.264;2022-09-13T02:12:45;5.80;;;4.88;;
57969;SDS011;43777;42.656;23.264;2022-09-13T02:15:16;6.00;;;4.70;;
57969;SDS011;43777;42.656;23.264;2022-09-13T02:17:48;8.10;;;5.22;;
57969;SDS011;43777;42.656;23.264;2022-09-13T02:20:20;5.95;;;4.90;;
57969;SDS011;43777;42.656;23.264;2022-09-13T02:22:49;5.55;;;5.05;;
57969;SDS011;43777;42.656;23.264;2022-09-13T02:25:17;6.28;;;4.32;;
57969;SDS011;43777;42.656;23.264;2022-09-13T02:27:45;8.70;;;4.97;;
57969;SDS011;43777;42.656;23.264;2022-09-13T02:30:13;5.55;;;4.47;;
57969;SDS011;43777;42.656;23.264;2022-09-13T02:37:35;4.93;;;4.43;;
57969;SDS011;43777;42.656;23.264;2022-09-13T02:40:07;4.53;;;4.13;;
57969;SDS011;43777;42.656;23.264;2022-09-13T02:42:38;5.55;;;4.10;;
57969;SDS011;43777;42.656;23.264;2022-09-13T02:45:09;9.13;;;4.50;;
57969;SDS011;43777;42.656;23.264;2022-09-13T02:55:04;4.55;;;4.10;;
57969;SDS011;43777;42.656;23.264;2022-09-13T02:57:40;5.40;;;4.15;;
57969;SDS011;43777;42.656;23.264;2022-09-13T03:00:07;4.60;;;4.20;;
57969;SDS011;43777;42.656;23.264;2022-09-13T03:02:34;5.10;;;4.38;;
57969;SDS011;43777;42.656;23.264;2022-09-13T03:05:01;7.50;;;4.10;;
57969;SDS011;43777;42.656;23.264;2022-09-13T03:07:27;6.70;;;4.82;;
57969;SDS011;43777;42.656;23.264;2022-09-13T03:09:55;4.65;;;4.10;;
57969;SDS011;43777;42.656;23.264;2022-09-13T03:12:35;4.80;;;4.28;;
57969;SDS011;43777;42.656;23.264;2022-09-13T03:18:29;8.52;;;4.20;;
57969;SDS011;43777;42.656;23.264;2022-09-13T03:20:48;4.97;;;4.30;;
57969;SDS011;43777;42.656;23.264;2022-09-13T03:28:43;5.03;;;4.03;;
57969;SDS011;43777;42.656;23.264;2022-09-13T03:36:20;4.00;;;3.70;;
57969;SDS011;43777;42.656;23.264;2022-09-13T03:39:00;4.45;;;3.97;;
57969;SDS011;43777;42.656;23.264;2022-09-13T03:41:32;4.97;;;4.15;;
57969;SDS011;43777;42.656;23.264;2022-09-13T03:44:00;5.90;;;4.00;;
57969;SDS011;43777;42.656;23.264;2022-09-13T03:46:35;4.75;;;4.25;;
57969;SDS011;43777;42.656;23.264;2022-09-13T03:49:06;4.93;;;3.80;;
57969;SDS011;43777;42.656;23.264;2022-09-13T03:51:33;5.63;;;4.03;;
57969;SDS011;43777;42.656;23.264;2022-09-13T03:54:02;4.55;;;4.15;;
57969;SDS011;43777;42.656;23.264;2022-09-13T03:56:29;4.75;;;3.90;;
57969;SDS011;43777;42.656;23.264;2022-09-13T03:58:55;6.43;;;3.83;;
57969;SDS011;43777;42.656;23.264;2022-09-13T04:01:21;5.93;;;3.90;;
57969;SDS011;43777;42.656;23.264;2022-09-13T04:03:48;4.75;;;4.20;;
57969;SDS011;43777;42.656;23.264;2022-09-13T04:06:14;8.43;;;3.97;;
57969;SDS011;43777;42.656;23.264;2022-09-13T04:08:40;4.15;;;3.63;;
57969;SDS011;43777;42.656;23.264;2022-09-13T04:11:07;4.00;;;3.60;;
57969;SDS011;43777;42.656;23.264;2022-09-13T04:13:34;4.70;;;3.58;;
57969;SDS011;43777;42.656;23.264;2022-09-13T04:16:04;6.40;;;3.63;;
57969;SDS011;43777;42.656;23.264;2022-09-13T04:18:31;4.93;;;3.97;;
57969;SDS011;43777;42.656;23.264;2022-09-13T04:20:58;5.22;;;3.38;;
57969;SDS011;43777;42.656;23.264;2022-09-13T04:23:24;5.80;;;3.80;;
57969;SDS011;43777;42.656;23.264;2022-09-13T04:25:51;4.90;;;3.53;;
57969;SDS011;43777;42.656;23.264;2022-09-13T04:28:17;5.18;;;3.75;;
57969;SDS011;43777;42.656;23.264;2022-09-13T04:30:44;5.50;;;3.80;;
57969;SDS011;43777;42.656;23.264;2022-09-13T04:33:10;4.28;;;3.22;;
57969;SDS011;43777;42.656;23.264;2022-09-13T04:35:36;11.27;;;3.97;;
57969;SDS011;43777;42.656;23.264;2022-09-13T04:38:03;4.07;;;3.45;;
57969;SDS011;43777;42.656;23.264;2022-09-13T04:40:29;4.60;;;3.75;;
57969;SDS011;43777;42.656;23.264;2022-09-13T04:42:55;4.10;;;3.70;;
57969;SDS011;43777;42.656;23.264;2022-09-13T04:45:21;3.67;;;3.38;;
57969;SDS011;43777;42.656;23.264;2022-09-13T04:47:52;6.45;;;3.47;;
57969;SDS011;43777;42.656;23.264;2022-09-13T04:50:18;8.70;;;3.83;;
57969;SDS011;43777;42.656;23.264;2022-09-13T04:52:44;5.75;;;4.13;;
57969;SDS011;43777;42.656;23.264;2022-09-13T04:55:11;3.88;;;3.58;;
57969;SDS011;43777;42.656;23.264;2022-09-13T04:57:37;5.25;;;3.45;;
57969;SDS011;43777;42.656;23.264;2022-09-13T05:00:03;3.50;;;2.97;;
57969;SDS011;43777;42.656;23.264;2022-09-13T05:02:29;5.88;;;4.10;;
57969;SDS011;43777;42.656;23.264;2022-09-13T05:04:56;6.47;;;3.58;;
57969;SDS011;43777;42.656;23.264;2022-09-13T05:07:22;7.05;;;3.50;;
57969;SDS011;43777;42.656;23.264;2022-09-13T05:09:48;5.38;;;3.60;;
57969;SDS011;43777;42.656;23.264;2022-09-13T05:12:14;5.35;;;3.50;;
57969;SDS011;43777;42.656;23.264;2022-09-13T05:14:40;4.40;;;3.70;;
57969;SDS011;43777;42.656;23.264;2022-09-13T05:17:06;6.07;;;3.17;;
57969;SDS011;43777;42.656;23.264;2022-09-13T05:19:32;4.30;;;3.70;;
57969;SDS011;43777;42.656;23.264;2022-09-13T05:21:59;4.10;;;3.50;;
57969;SDS011;43777;42.656;23.264;2022-09-13T05:24:25;9.57;;;3.47;;
57969;SDS011;43777;42.656;23.264;2022-09-13T05:26:51;5.68;;;3.47;;
57969;SDS011;43777;42.656;23.264;2022-09-13T05:29:18;3.65;;;3.35;;
57969;SDS011;43777;42.656;23.264;2022-09-13T05:31:44;4.60;;;3.53;;
57969;SDS011;43777;42.656;23.264;2022-09-13T05:34:11;3.90;;;3.53;;
57969;SDS011;43777;42.656;23.264;2022-09-13T05:36:38;14.07;;;3.90;;
57969;SDS011;43777;42.656;23.264;2022-09-13T05:39:04;8.13;;;3.70;;
57969;SDS011;43777;42.656;23.264;2022-09-13T05:41:30;4.95;;;3.80;;
57969;SDS011;43777;42.656;23.264;2022-09-13T05:43:57;9.40;;;4.10;;
57969;SDS011;43777;42.656;23.264;2022-09-13T05:46:23;10.13;;;3.75;;
57969;SDS011;43777;42.656;23.264;2022-09-13T05:48:49;8.55;;;4.15;;
57969;SDS011;43777;42.656;23.264;2022-09-13T05:53:41;4.22;;;3.85;;
57969;SDS011;43777;42.656;23.264;2022-09-13T05:56:09;4.03;;;3.67;;
57969;SDS011;43777;42.656;23.264;2022-09-13T05:58:39;5.70;;;3.80;;
57969;SDS011;43777;42.656;23.264;2022-09-13T06:01:05;6.47;;;4.07;;
57969;SDS011;43777;42.656;23.264;2022-09-13T06:03:31;4.55;;;3.55;;
57969;SDS011;43777;42.656;23.264;2022-09-13T06:05:57;3.95;;;3.33;;
57969;SDS011;43777;42.656;23.264;2022-09-13T06:08:27;7.75;;;3.75;;
57969;SDS011;43777;42.656;23.264;2022-09-13T06:10:57;4.95;;;3.92;;
57969;SDS011;43777;42.656;23.264;2022-09-13T06:13:24;4.00;;;3.60;;
57969;SDS011;43777;42.656;23.264;2022-09-13T06:15:50;3.70;;;3.40;;
57969;SDS011;43777;42.656;23.264;2022-09-13T06:18:17;6.40;;;3.47;;
57969;SDS011;43777;42.656;23.264;2022-09-13T06:20:43;7.18;;;3.53;;
57969;SDS011;43777;42.656;23.264;2022-09-13T06:23:09;6.13;;;3.30;;
57969;SDS011;43777;42.656;23.264;2022-09-13T06:25:35;6.85;;;3.90;;
57969;SDS011;43777;42.656;23.264;2022-09-13T06:28:02;4.28;;;3.25;;
57969;SDS011;43777;42.656;23.264;2022-09-13T06:30:28;13.85;;;4.22;;
57969;SDS011;43777;42.656;23.264;2022-09-13T06:32:57;5.88;;;3.45;;
57969;SDS011;43777;42.656;23.264;2022-09-13T06:35:23;11.13;;;3.88;;
57969;SDS011;43777;42.656;23.264;2022-09-13T06:37:49;6.63;;;3.78;;
57969;SDS011;43777;42.656;23.264;2022-09-13T06:40:16;4.60;;;3.30;;
57969;SDS011;43777;42.656;23.264;2022-09-13T06:42:42;3.70;;;3.40;;
57969;SDS011;43777;42.656;23.264;2022-09-13T06:45:08;13.10;;;4.22;;
57969;SDS011;43777;42.656;23.264;2022-09-13T06:47:34;3.67;;;3.38;;
57969;SDS011;43777;42.656;23.264;2022-09-13T06:50:00;5.30;;;3.10;;
57969;SDS011;43777;42.656;23.264;2022-09-13T06:52:26;6.35;;;3.45;;
57969;SDS011;43777;42.656;23.264;2022-09-13T06:54:53;8.50;;;3.20;;
57969;SDS011;43777;42.656;23.264;2022-09-13T06:57:19;5.30;;;3.22;;
57969;SDS011;43777;42.656;23.264;2022-09-13T06:59:45;8.90;;;3.47;;
57969;SDS011;43777;42.656;23.264;2022-09-13T07:02:11;7.57;;;3.50;;
57969;SDS011;43777;42.656;23.264;2022-09-13T07:04:39;6.97;;;3.05;;
57969;SDS011;43777;42.656;23.264;2022-09-13T07:07:05;8.07;;;3.40;;
57969;SDS011;43777;42.656;23.264;2022-09-13T07:09:31;6.47;;;3.70;;
57969;SDS011;43777;42.656;23.264;2022-09-13T07:12:00;7.30;;;3.58;;
57969;SDS011;43777;42.656;23.264;2022-09-13T07:14:27;10.52;;;3.47;;
57969;SDS011;43777;42.656;23.264;2022-09-13T07:16:53;11.70;;;3.67;;
57969;SDS011;43777;42.656;23.264;2022-09-13T07:19:29;13.63;;;4.25;;
57969;SDS011;43777;42.656;23.264;2022-09-13T07:21:55;4.05;;;3.65;;
57969;SDS011;43777;42.656;23.264;2022-09-13T07:24:22;5.40;;;3.42;;
57969;SDS011;43777;42.656;23.264;2022-09-13T07:26:48;5.32;;;3.30;;
57969;SDS011;43777;42.656;23.264;2022-09-13T07:29:15;5.18;;;3.40;;
57969;SDS011;43777;42.656;23.264;2022-09-13T07:31:43;12.80;;;3.75;;
57969;SDS011;43777;42.656;23.264;2022-09-13T07:34:11;4.70;;;2.80;;
57969;SDS011;43777;42.656;23.264;2022-09-13T07:36:37;4.78;;;3.17;;
57969;SDS011;43777;42.656;23.264;2022-09-13T07:39:04;5.18;;;3.47;;
57969;SDS011;43777;42.656;23.264;2022-09-13T07:41:30;4.20;;;3.13;;
57969;SDS011;43777;42.656;23.264;2022-09-13T07:43:57;3.92;;;3.20;;
57969;SDS011;43777;42.656;23.264;2022-09-13T07:46:26;3.33;;;2.70;;
57969;SDS011;43777;42.656;23.264;2022-09-13T07:48:52;8.27;;;3.17;;
57969;SDS011;43777;42.656;23.264;2022-09-13T07:51:20;5.50;;;2.72;;
57969;SDS011;43777;42.656;23.264;2022-09-13T07:53:47;7.53;;;3.10;;
57969;SDS011;43777;42.656;23.264;2022-09-13T07:56:14;11.48;;;3.25;;
57969;SDS011;43777;42.656;23.264;2022-09-13T07:58:41;8.27;;;3.30;;
57969;SDS011;43777;42.656;23.264;2022-09-13T08:01:08;9.50;;;3.40;;
57969;SDS011;43777;42.656;23.264;2022-09-13T08:03:35;5.50;;;3.35;;
57969;SDS011;43777;42.656;23.264;2022-09-13T08:06:02;4.53;;;2.83;;
57969;SDS011;43777;42.656;23.264;2022-09-13T08:08:28;3.92;;;2.90;;
57969;SDS011;43777;42.656;23.264;2022-09-13T08:10:55;8.63;;;3.05;;
57969;SDS011;43777;42.656;23.264;2022-09-13T08:13:21;9.07;;;3.10;;
57969;SDS011;43777;42.656;23.264;2022-09-13T08:15:47;4.80;;;3.20;;
57969;SDS011;43777;42.656;23.264;2022-09-13T08:18:14;3.38;;;2.60;;
57969;SDS011;43777;42.656;23.264;2022-09-13T08:20:40;3.47;;;2.88;;
57969;SDS011;43777;42.656;23.264;2022-09-13T08:23:06;5.22;;;2.60;;
57969;SDS011;43777;42.656;23.264;2022-09-13T08:25:33;3.08;;;2.72;;
57969;SDS011;43777;42.656;23.264;2022-09-13T08:28:00;3.55;;;2.47;;
57969;SDS011;43777;42.656;23.264;2022-09-13T08:30:26;8.48;;;2.70;;
57969;SDS011;43777;42.656;23.264;2022-09-13T08:32:57;6.78;;;2.80;;
57969;SDS011;43777;42.656;23.264;2022-09-13T08:35:25;5.25;;;2.90;;
57969;SDS011;43777;42.656;23.264;2022-09-13T08:37:51;5.28;;;2.67;;
57969;SDS011;43777;42.656;23.264;2022-09-13T08:40:17;4.43;;;3.05;;
57969;SDS011;43777;42.656;23.264;2022-09-13T08:45:09;7.05;;;2.45;;
57969;SDS011;43777;42.656;23.264;2022-09-13T08:47:46;4.22;;;2.60;;
57969;SDS011;43777;42.656;23.264;2022-09-13T08:50:22;6.70;;;3.10;;
57969;SDS011;43777;42.656;23.264;2022-09-13T08:55:24;3.80;;;2.80;;
57969;SDS011;43777;42.656;23.264;2022-09-13T09:00:28;16.85;;;2.80;;
57969;SDS011;43777;42.656;23.264;2022-09-13T09:05:55;4.47;;;2.30;;
57969;SDS011;43777;42.656;23.264;2022-09-13T09:10:51;3.83;;;2.05;;
57969;SDS011;43777;42.656;23.264;2022-09-13T09:13:20;6.55;;;2.15;;
57969;SDS011;43777;42.656;23.264;2022-09-13T09:15:52;3.42;;;2.50;;
57969;SDS011;43777;42.656;23.264;2022-09-13T09:18:20;4.80;;;2.40;;
57969;SDS011;43777;42.656;23.264;2022-09-13T09:20:55;5.25;;;2.47;;
57969;SDS011;43777;42.656;23.264;2022-09-13T09:26:04;9.90;;;2.97;;
57969;SDS011;43777;42.656;23.264;2022-09-13T09:28:36;4.40;;;2.40;;
57969;SDS011;43777;42.656;23.264;2022-09-13T09:31:09;4.80;;;2.80;;
57969;SDS011;43777;42.656;23.264;2022-09-13T09:38:42;4.50;;;2.40;;
57969;SDS011;43777;42.656;23.264;2022-09-13T09:43:38;3.35;;;2.50;;
57969;SDS011;43777;42.656;23.264;2022-09-13T09:46:06;4.60;;;2.67;;
57969;SDS011;43777;42.656;23.264;2022-09-13T09:48:35;6.72;;;2.80;;
57969;SDS011;43777;42.656;23.264;2022-09-13T09:51:02;11.15;;;2.75;;
57969;SDS011;43777;42.656;23.264;2022-09-13T09:53:31;8.65;;;2.70;;
57969;SDS011;43777;42.656;23.264;2022-09-13T09:55:59;6.82;;;2.97;;
57969;SDS011;43777;42.656;23.264;2022-09-13T09:58:45;16.00;;;3.65;;
57969;SDS011;43777;42.656;23.264;2022-09-13T10:01:24;7.10;;;2.85;;
57969;SDS011;43777;42.656;23.264;2022-09-13T10:06:25;4.05;;;2.53;;
57969;SDS011;43777;42.656;23.264;2022-09-13T10:08:58;4.38;;;2.63;;
57969;SDS011;43777;42.656;23.264;2022-09-13T10:16:49;3.50;;;2.83;;
57969;SDS011;43777;42.656;23.264;2022-09-13T10:19:26;3.85;;;2.63;;
57969;SDS011;43777;42.656;23.264;2022-09-13T10:22:09;2.95;;;2.70;;
57969;SDS011;43777;42.656;23.264;2022-09-13T10:24:35;10.50;;;3.30;;
57969;SDS011;43777;42.656;23.264;2022-09-13T10:27:01;2.70;;;2.50;;
57969;SDS011;43777;42.656;23.264;2022-09-13T10:29:30;25.75;;;4.45;;
57969;SDS011;43777;42.656;23.264;2022-09-13T10:31:57;6.47;;;2.78;;
57969;SDS011;43777;42.656;23.264;2022-09-13T10:34:34;3.53;;;2.70;;
57969;SDS011;43777;42.656;23.264;2022-09-13T10:37:02;3.45;;;3.15;;
57969;SDS011;43777;42.656;23.264;2022-09-13T10:39:30;6.65;;;2.85;;
57969;SDS011;43777;42.656;23.264;2022-09-13T10:44:28;3.80;;;3.08;;
57969;SDS011;43777;42.656;23.264;2022-09-13T10:46:55;3.00;;;2.70;;
57969;SDS011;43777;42.656;23.264;2022-09-13T10:54:47;8.52;;;3.25;;
57969;SDS011;43777;42.656;23.264;2022-09-13T10:57:24;6.72;;;3.10;;
57969;SDS011;43777;42.656;23.264;2022-09-13T10:59:53;7.97;;;3.08;;
57969;SDS011;43777;42.656;23.264;2022-09-13T11:04:55;9.65;;;3.00;;
57969;SDS011;43777;42.656;23.264;2022-09-13T11:12:18;5.10;;;2.75;;
57969;SDS011;43777;42.656;23.264;2022-09-13T11:15:12;5.47;;;2.60;;
57969;SDS011;43777;42.656;23.264;2022-09-13T11:17:48;2.80;;;2.60;;
57969;SDS011;43777;42.656;23.264;2022-09-13T11:28:11;23.88;;;3.72;;
57969;SDS011;43777;42.656;23.264;2022-09-13T11:33:24;10.70;;;2.97;;
57969;SDS011;43777;42.656;23.264;2022-09-13T11:53:53;4.20;;;2.60;;
57969;SDS011;43777;42.656;23.264;2022-09-13T11:56:23;16.98;;;3.20;;
57969;SDS011;43777;42.656;23.264;2022-09-13T11:58:55;8.90;;;2.75;;
57969;SDS011;43777;42.656;23.264;2022-09-13T12:01:25;4.13;;;2.50;;
57969;SDS011;43777;42.656;23.264;2022-09-13T12:04:03;3.53;;;2.67;;
57969;SDS011;43777;42.656;23.264;2022-09-13T12:06:37;8.55;;;2.78;;
57969;SDS011;43777;42.656;23.264;2022-09-13T12:09:06;22.38;;;3.53;;
57969;SDS011;43777;42.656;23.264;2022-09-13T12:11:38;13.15;;;2.70;;
57969;SDS011;43777;42.656;23.264;2022-09-13T12:14:10;4.22;;;2.50;;
57969;SDS011;43777;42.656;23.264;2022-09-13T12:16:37;4.97;;;2.55;;
57969;SDS011;43777;42.656;23.264;2022-09-13T12:19:20;10.65;;;2.70;;
57969;SDS011;43777;42.656;23.264;2022-09-13T12:21:47;5.65;;;2.42;;
57969;SDS011;43777;42.656;23.264;2022-09-13T12:24:18;4.20;;;2.50;;
57969;SDS011;43777;42.656;23.264;2022-09-13T12:26:59;7.50;;;2.78;;
57969;SDS011;43777;42.656;23.264;2022-09-13T12:32:02;4.43;;;2.70;;
57969;SDS011;43777;42.656;23.264;2022-09-13T12:37:15;9.32;;;2.42;;
57969;SDS011;43777;42.656;23.264;2022-09-13T12:40:28;19.90;;;3.00;;
57969;SDS011;43777;42.656;23.264;2022-09-13T12:47:45;2.85;;;2.40;;
57969;SDS011;43777;42.656;23.264;2022-09-13T13:00:34;12.32;;;2.50;;
57969;SDS011;43777;42.656;23.264;2022-09-13T13:03:11;8.45;;;2.80;;
57969;SDS011;43777;42.656;23.264;2022-09-13T13:11:05;2.75;;;2.50;;
57969;SDS011;43777;42.656;23.264;2022-09-13T13:13:34;5.00;;;2.63;;
57969;SDS011;43777;42.656;23.264;2022-09-13T13:18:45;2.28;;;2.13;;
57969;SDS011;43777;42.656;23.264;2022-09-13T13:31:41;10.02;;;3.03;;
57969;SDS011;43777;42.656;23.264;2022-09-13T13:39:31;8.93;;;2.78;;
57969;SDS011;43777;42.656;23.264;2022-09-13T13:46:51;2.95;;;2.75;;
57969;SDS011;43777;42.656;23.264;2022-09-13T13:57:20;6.85;;;3.25;;
57969;SDS011;43777;42.656;23.264;2022-09-13T13:59:47;7.88;;;3.28;;
57969;SDS011;43777;42.656;23.264;2022-09-13T14:02:14;5.85;;;3.67;;
57969;SDS011;43777;42.656;23.264;2022-09-13T14:09:45;8.73;;;3.90;;
57969;SDS011;43777;42.656;23.264;2022-09-13T14:20:09;7.13;;;3.05;;
57969;SDS011;43777;42.656;23.264;2022-09-13T14:22:36;4.30;;;3.28;;
57969;SDS011;43777;42.656;23.264;2022-09-13T14:27:38;8.57;;;3.70;;
57969;SDS011;43777;42.656;23.264;2022-09-13T14:32:48;9.38;;;3.67;;
57969;SDS011;43777;42.656;23.264;2022-09-13T14:35:34;5.18;;;3.10;;
57969;SDS011;43777;42.656;23.264;2022-09-13T14:40:35;4.25;;;3.13;;
57969;SDS011;43777;42.656;23.264;2022-09-13T14:43:12;3.38;;;3.03;;
57969;SDS011;43777;42.656;23.264;2022-09-13T14:45:38;8.93;;;3.58;;
57969;SDS011;43777;42.656;23.264;2022-09-13T14:48:18;7.63;;;3.75;;
57969;SDS011;43777;42.656;23.264;2022-09-13T14:50:47;6.70;;;3.33;;
57969;SDS011;43777;42.656;23.264;2022-09-13T14:53:15;6.00;;;3.65;;
57969;SDS011;43777;42.656;23.264;2022-09-13T14:55:44;3.42;;;3.13;;
57969;SDS011;43777;42.656;23.264;2022-09-13T14:58:16;8.35;;;3.35;;
57969;SDS011;43777;42.656;23.264;2022-09-13T15:00:57;3.85;;;3.33;;
57969;SDS011;43777;42.656;23.264;2022-09-13T15:03:25;6.43;;;3.63;;
57969;SDS011;43777;42.656;23.264;2022-09-13T15:05:55;8.80;;;4.20;;
57969;SDS011;43777;42.656;23.264;2022-09-13T15:10:51;14.48;;;3.60;;
57969;SDS011;43777;42.656;23.264;2022-09-13T15:13:17;16.58;;;3.70;;
57969;SDS011;43777;42.656;23.264;2022-09-13T15:15:43;11.50;;;3.50;;
57969;SDS011;43777;42.656;23.264;2022-09-13T15:23:19;3.47;;;2.58;;
57969;SDS011;43777;42.656;23.264;2022-09-13T15:25:55;13.32;;;3.53;;
57969;SDS011;43777;42.656;23.264;2022-09-13T15:28:26;7.25;;;3.03;;
57969;SDS011;43777;42.656;23.264;2022-09-13T15:30:53;6.68;;;3.25;;
57969;SDS011;43777;42.656;23.264;2022-09-13T15:35:46;4.30;;;3.22;;
57969;SDS011;43777;42.656;23.264;2022-09-13T15:38:17;4.57;;;3.13;;
57969;SDS011;43777;42.656;23.264;2022-09-13T15:40:45;3.40;;;3.10;;
57969;SDS011;43777;42.656;23.264;2022-09-13T15:43:12;6.40;;;3.20;;
57969;SDS011;43777;42.656;23.264;2022-09-13T15:45:38;8.07;;;3.40;;
57969;SDS011;43777;42.656;23.264;2022-09-13T15:48:04;4.07;;;3.35;;
57969;SDS011;43777;42.656;23.264;2022-09-13T15:50:31;11.00;;;3.97;;
57969;SDS011;43777;42.656;23.264;2022-09-13T15:52:58;9.57;;;4.40;;
57969;SDS011;43777;42.656;23.264;2022-09-13T15:55:25;4.32;;;3.88;;
57969;SDS011;43777;42.656;23.264;2022-09-13T15:57:51;8.85;;;4.18;;
57969;SDS011;43777;42.656;23.264;2022-09-13T16:00:19;6.65;;;3.90;;
57969;SDS011;43777;42.656;23.264;2022-09-13T16:02:45;57.42;;;8.10;;
57969;SDS011;43777;42.656;23.264;2022-09-13T16:05:11;9.00;;;4.45;;
57969;SDS011;43777;42.656;23.264;2022-09-13T16:07:37;8.43;;;4.95;;
57969;SDS011;43777;42.656;23.264;2022-09-13T16:10:20;7.90;;;3.60;;
57969;SDS011;43777;42.656;23.264;2022-09-13T16:12:46;4.80;;;4.40;;
57969;SDS011;43777;42.656;23.264;2022-09-13T16:15:13;11.48;;;3.83;;
57969;SDS011;43777;42.656;23.264;2022-09-13T16:17:39;31.63;;;5.30;;
57969;SDS011;43777;42.656;23.264;2022-09-13T16:20:05;6.63;;;3.80;;
57969;SDS011;43777;42.656;23.264;2022-09-13T16:22:34;7.05;;;4.00;;
57969;SDS011;43777;42.656;23.264;2022-09-13T16:25:01;4.88;;;4.07;;
57969;SDS011;43777;42.656;23.264;2022-09-13T16:27:27;4.93;;;3.40;;
57969;SDS011;43777;42.656;23.264;2022-09-13T16:29:54;4.63;;;4.15;;
57969;SDS011;43777;42.656;23.264;2022-09-13T16:32:20;5.10;;;4.00;;
57969;SDS011;43777;42.656;23.264;2022-09-13T16:34:46;7.50;;;4.10;;
57969;SDS011;43777;42.656;23.264;2022-09-13T16:37:16;9.10;;;4.70;;
57969;SDS011;43777;42.656;23.264;2022-09-13T16:39:42;4.25;;;3.95;;
57969;SDS011;43777;42.656;23.264;2022-09-13T16:42:09;4.13;;;3.67;;
57969;SDS011;43777;42.656;23.264;2022-09-13T16:44:35;4.22;;;3.92;;
57969;SDS011;43777;42.656;23.264;2022-09-13T16:47:02;5.25;;;4.53;;
57969;SDS011;43777;42.656;23.264;2022-09-13T16:49:28;4.80;;;4.05;;
57969;SDS011;43777;42.656;23.264;2022-09-13T16:51:54;4.65;;;3.83;;
57969;SDS011;43777;42.656;23.264;2022-09-13T16:54:23;4.05;;;3.72;;
57969;SDS011;43777;42.656;23.264;2022-09-13T16:56:50;4.25;;;3.95;;
57969;SDS011;43777;42.656;23.264;2022-09-13T16:59:16;4.75;;;4.35;;
57969;SDS011;43777;42.656;23.264;2022-09-13T17:01:42;4.90;;;4.40;;
57969;SDS011;43777;42.656;23.264;2022-09-13T17:04:08;5.57;;;4.10;;
57969;SDS011;43777;42.656;23.264;2022-09-13T17:06:35;6.72;;;4.25;;
57969;SDS011;43777;42.656;23.264;2022-09-13T17:09:02;4.75;;;4.38;;
57969;SDS011;43777;42.656;23.264;2022-09-13T17:11:30;5.07;;;4.68;;
57969;SDS011;43777;42.656;23.264;2022-09-13T17:13:56;5.10;;;4.50;;
57969;SDS011;43777;42.656;23.264;2022-09-13T17:16:30;5.50;;;5.00;;
57969;SDS011;43777;42.656;23.264;2022-09-13T17:18:57;5.20;;;4.70;;
57969;SDS011;43777;42.656;23.264;2022-09-13T17:21:23;5.25;;;4.70;;
57969;SDS011;43777;42.656;23.264;2022-09-13T17:23:49;5.70;;;5.13;;
57969;SDS011;43777;42.656;23.264;2022-09-13T17:26:16;5.10;;;4.63;;
57969;SDS011;43777;42.656;23.264;2022-09-13T17:28:42;4.88;;;4.47;;
57969;SDS011;43777;42.656;23.264;2022-09-13T17:31:08;5.32;;;4.93;;
57969;SDS011;43777;42.656;23.264;2022-09-13T17:33:34;5.15;;;4.57;;
57969;SDS011;43777;42.656;23.264;2022-09-13T17:36:04;5.05;;;4.53;;
57969;SDS011;43777;42.656;23.264;2022-09-13T17:38:33;5.13;;;4.63;;
57969;SDS011;43777;42.656;23.264;2022-09-13T17:41:00;4.32;;;3.92;;
57969;SDS011;43777;42.656;23.264;2022-09-13T17:43:26;4.53;;;4.13;;
57969;SDS011;43777;42.656;23.264;2022-09-13T17:45:52;5.13;;;4.63;;
57969;SDS011;43777;42.656;23.264;2022-09-13T17:48:18;7.18;;;6.47;;
57969;SDS011;43777;42.656;23.264;2022-09-13T17:50:44;5.70;;;5.20;;
57969;SDS011;43777;42.656;23.264;2022-09-13T17:53:10;4.85;;;4.45;;
57969;SDS011;43777;42.656;23.264;2022-09-13T17:55:44;5.47;;;4.97;;
57969;SDS011;43777;42.656;23.264;2022-09-13T17:58:10;4.75;;;4.35;;
57969;SDS011;43777;42.656;23.264;2022-09-13T18:00:36;4.47;;;4.07;;
57969;SDS011;43777;42.656;23.264;2022-09-13T18:03:03;4.32;;;3.95;;
57969;SDS011;43777;42.656;23.264;2022-09-13T18:05:29;4.25;;;3.95;;
57969;SDS011;43777;42.656;23.264;2022-09-13T18:07:55;5.05;;;4.05;;
57969;SDS011;43777;42.656;23.264;2022-09-13T18:10:21;8.23;;;4.70;;
57969;SDS011;43777;42.656;23.264;2022-09-13T18:12:47;4.35;;;3.95;;
57969;SDS011;43777;42.656;23.264;2022-09-13T18:15:13;4.75;;;4.35;;
57969;SDS011;43777;42.656;23.264;2022-09-13T18:17:39;4.75;;;3.78;;
57969;SDS011;43777;42.656;23.264;2022-09-13T18:20:05;6.95;;;4.15;;
57969;SDS011;43777;42.656;23.264;2022-09-13T18:22:32;4.43;;;4.00;;
57969;SDS011;43777;42.656;23.264;2022-09-13T18:24:58;6.75;;;4.60;;
57969;SDS011;43777;42.656;23.264;2022-09-13T18:27:24;4.43;;;4.03;;